Time;durP1;ratioP1;P1;durP2;ratioP2;P2;SDS_P1;SDS_P2;PMS_P1;PMS_P2;Temp;Humidity;BMP_temperature;BMP_pressure;BME280_temperature;BME280_humidity;BME280_pressure;Samples;Min_cycle;Max_cycle;Signal;HPM_P1;HPM_P2
2021/12/18 00:01:47;;;;;;;0.70;0.70;;;;;;;0.53;100.00;100118.34;5152531;27;20047;-60
2021/12/18 00:04:13;;;;;;;0.85;0.85;;;;;;;0.52;100.00;100108.66;5152829;27;20051;-60
2021/12/18 00:06:40;;;;;;;0.80;0.77;;;;;;;0.57;100.00;100119.44;5152525;27;20474;-60
2021/12/18 00:09:08;;;;;;;0.70;0.70;;;;;;;0.51;100.00;100129.44;5152265;27;20042;-60
2021/12/18 00:11:34;;;;;;;1.75;0.80;;;;;;;0.52;100.00;100132.94;5152443;27;20585;-61
2021/12/18 00:14:01;;;;;;;0.80;0.80;;;;;;;0.53;100.00;100118.34;5152669;27;20046;-60
2021/12/18 00:16:27;;;;;;;1.35;0.90;;;;;;;0.58;100.00;100115.66;5152483;27;20050;-60
2021/12/18 00:18:56;;;;;;;1.05;0.95;;;;;;;0.64;100.00;100095.66;5152322;27;20552;-60
2021/12/18 00:21:22;;;;;;;3.33;1.00;;;;;;;0.67;100.00;100103.22;5152281;27;20442;-60
2021/12/18 00:23:49;;;;;;;2.40;1.08;;;;;;;0.68;100.00;100089.41;5152044;27;20050;-60
2021/12/18 00:26:16;;;;;;;1.20;1.10;;;;;;;0.57;100.00;100076.25;5152224;27;20099;-60
2021/12/18 00:28:43;;;;;;;1.27;1.02;;;;;;;0.50;100.00;100071.16;5151926;27;20047;-61
2021/12/18 00:31:09;;;;;;;1.10;1.00;;;;;;;0.57;100.00;100052.78;5152466;27;20061;-60
2021/12/18 00:33:35;;;;;;;1.00;1.00;;;;;;;0.53;100.00;100035.50;5152005;27;20536;-60
2021/12/18 00:36:02;;;;;;;1.45;1.08;;;;;;;0.50;100.00;100033.41;5152042;27;20061;-60
2021/12/18 00:38:29;;;;;;;1.27;1.10;;;;;;;0.50;100.00;100037.97;5152131;27;20093;-61
2021/12/18 00:41:12;;;;;;;1.50;0.93;;;;;;;0.55;100.00;100035.25;5152147;27;20046;-60
2021/12/18 00:44:01;;;;;;;1.40;0.80;;;;;;;0.60;100.00;100036.03;5151867;27;20520;-60
2021/12/18 00:46:26;;;;;;;1.27;0.70;;;;;;;0.53;100.00;100034.72;5151599;27;20042;-60
2021/12/18 00:48:53;;;;;;;0.73;0.70;;;;;;;0.38;100.00;100052.56;5151887;27;20411;-60
2021/12/18 00:51:20;;;;;;;0.85;0.85;;;;;;;0.35;100.00;100080.09;5151730;27;20133;-60
2021/12/18 00:53:46;;;;;;;0.77;0.75;;;;;;;0.44;100.00;100091.94;5151908;27;20061;-60
2021/12/18 00:56:13;;;;;;;0.55;0.55;;;;;;;0.51;100.00;100093.56;5152133;27;20414;-60
2021/12/18 00:58:39;;;;;;;0.80;0.80;;;;;;;0.52;100.00;100103.25;5151733;27;20523;-60
2021/12/18 01:01:09;;;;;;;0.88;0.80;;;;;;;0.53;100.00;100102.97;5151036;27;20046;-60
2021/12/18 01:03:36;;;;;;;1.05;0.80;;;;;;;0.60;100.00;100108.06;5151795;27;20046;-60
2021/12/18 01:06:02;;;;;;;1.25;0.90;;;;;;;0.69;100.00;100114.50;5151645;27;20050;-61
2021/12/18 01:08:28;;;;;;;0.75;0.75;;;;;;;0.67;100.00;100122.09;5151309;27;20525;-60
2021/12/18 01:11:11;;;;;;;1.85;1.20;;;;;;;0.66;100.00;100131.25;5151585;27;20050;-61
2021/12/18 01:13:50;;;;;;;1.73;0.98;;;;;;;0.74;100.00;100133.41;5151527;27;20482;-60
2021/12/18 01:16:21;;;;;;;0.82;0.82;;;;;;;0.71;100.00;100136.66;5151568;27;20478;-60
2021/12/18 01:24:16;;;;;;;;;;;;;;;0.72;100.00;100142.84;5152327;27;20071;-60
2021/12/18 01:26:42;;;;;;;0.93;0.93;;;;;;;0.75;100.00;100132.31;5151058;27;19923;-61
2021/12/18 01:29:09;;;;;;;0.82;0.80;;;;;;;0.69;100.00;100133.41;5151374;27;20557;-60
2021/12/18 01:31:35;;;;;;;0.82;0.82;;;;;;;0.65;100.00;100137.75;5151452;27;20487;-61
2021/12/18 01:34:02;;;;;;;0.95;0.95;;;;;;;0.59;100.00;100125.34;5151208;27;20050;-61
2021/12/18 01:36:29;;;;;;;0.90;0.90;;;;;;;0.58;100.00;100118.34;5151276;27;20042;-60
2021/12/18 01:38:56;;;;;;;1.00;1.00;;;;;;;0.65;100.00;100121.56;5151530;27;20511;-60
2021/12/18 01:41:22;;;;;;;1.20;1.10;;;;;;;0.67;100.00;100119.41;5151036;27;20522;-60
2021/12/18 01:46:49;;;;;;;1.08;1.08;;;;;;;0.72;100.00;100116.66;5113701;27;20050;-60
2021/12/18 01:52:05;;;;;;;1.75;0.93;;;;;;;0.68;100.00;100104.81;5151234;27;20054;-60
2021/12/18 01:54:31;;;;;;;0.90;0.90;;;;;;;0.65;100.00;100099.97;5150909;27;20099;-61
2021/12/18 01:56:59;;;;;;;1.20;1.13;;;;;;;0.76;100.00;100082.63;5151133;27;20049;-60
2021/12/18 01:59:37;;;;;;;1.48;1.13;;;;;;;0.72;100.00;100073.47;5151042;27;20187;-60
2021/12/18 02:02:04;;;;;;;1.85;1.40;;;;;;;0.66;100.00;100058.38;5151063;27;20064;-60
2021/12/18 02:04:31;;;;;;;1.83;1.30;;;;;;;0.67;100.00;100041.94;5150745;27;20138;-60
2021/12/18 02:06:59;;;;;;;1.00;1.00;;;;;;;0.74;100.00;100022.75;5150983;27;20046;-60
2021/12/18 02:09:31;;;;;;;1.75;1.23;;;;;;;0.78;100.00;100021.09;5150305;27;20047;-61
2021/12/18 02:11:58;;;;;;;1.75;1.55;;;;;;;0.80;100.00;100001.91;5151432;27;20046;-60
2021/12/18 02:19:31;;;;;;;1.50;1.40;;;;;;;0.82;100.00;99981.66;5154511;27;20050;-60
2021/12/18 02:20:22;;;;;;;1.60;1.50;;;;;;;0.83;100.00;99968.97;5154228;27;20050;-61
2021/12/18 02:22:48;;;;;;;4.05;1.50;;;;;;;0.87;100.00;99972.72;5154097;27;20043;-60
2021/12/18 02:25:14;;;;;;;6.13;1.58;;;;;;;0.92;100.00;99978.88;5154350;27;20050;-61
2021/12/18 02:27:41;;;;;;;1.58;1.45;;;;;;;0.91;100.00;99977.28;5154159;27;20098;-60
2021/12/18 02:30:10;;;;;;;5.53;1.65;;;;;;;0.93;100.00;99975.13;5154228;27;20102;-61
2021/12/18 02:32:37;;;;;;;1.50;1.40;;;;;;;0.91;100.00;99979.19;5154216;27;20046;-60
2021/12/18 02:35:05;;;;;;;1.90;1.48;;;;;;;0.89;100.00;99990.25;5154031;27;20054;-60
2021/12/18 02:37:39;;;;;;;3.15;1.92;;;;;;;0.96;100.00;99983.72;5154081;27;20089;-60
2021/12/18 02:42:52;;;;;;;2.88;1.92;;;;;;;0.81;100.00;99968.44;5153989;27;20046;-60
2021/12/18 02:45:18;;;;;;;2.05;1.88;;;;;;;0.78;100.00;99972.50;5153732;27;20463;-60
2021/12/18 02:47:47;;;;;;;2.35;1.70;;;;;;;0.80;100.00;99956.84;5153743;27;20062;-60
2021/12/18 02:50:14;;;;;;;1.90;1.80;;;;;;;0.84;100.00;99949.00;5153710;27;20053;-61
2021/12/18 02:52:41;;;;;;;2.17;1.63;;;;;;;0.85;100.00;99935.19;5153504;27;20417;-60
2021/12/18 02:55:07;;;;;;;2.50;1.92;;;;;;;0.83;100.00;99921.16;5153784;27;20050;-61
2021/12/18 02:57:34;;;;;;;2.42;1.70;;;;;;;0.85;100.00;99915.50;5153691;27;20051;-60
2021/12/18 03:00:00;;;;;;;7.53;2.17;;;;;;;0.82;100.00;99916.06;5153827;27;20450;-61
2021/12/18 03:02:27;;;;;;;2.53;2.10;;;;;;;0.90;100.00;99907.34;5153525;27;20047;-60
2021/12/18 03:04:58;;;;;;;2.72;2.20;;;;;;;0.88;100.00;99910.34;5153546;27;20145;-61
2021/12/18 03:07:27;;;;;;;2.45;1.67;;;;;;;0.87;100.00;99906.03;5153628;27;20138;-60
2021/12/18 03:24:07;;;;;;;2.28;1.65;;;;;;;0.86;100.00;99896.31;5117348;27;20072;-61
2021/12/18 03:26:34;;;;;;;1.67;1.50;;;;;;;0.90;100.00;99896.56;5153410;27;20053;-61
2021/12/18 03:29:00;;;;;;;3.33;1.80;;;;;;;0.90;100.00;99905.47;5153275;27;20049;-61
2021/12/18 03:31:27;;;;;;;1.77;1.55;;;;;;;0.97;100.00;99896.22;5153298;27;20138;-61
2021/12/18 03:33:53;;;;;;;1.58;1.48;;;;;;;1.00;100.00;99901.91;5153035;27;20432;-60
2021/12/18 03:36:19;;;;;;;1.80;1.63;;;;;;;1.06;100.00;99913.44;5153205;27;20050;-60
2021/12/18 03:38:45;;;;;;;1.60;1.48;;;;;;;0.99;100.00;99934.56;5153079;27;20439;-61
2021/12/18 03:41:12;;;;;;;2.63;1.65;;;;;;;0.91;100.00;99934.09;5152936;27;20050;-61
2021/12/18 03:43:39;;;;;;;1.38;1.23;;;;;;;0.91;100.00;99925.97;5152726;27;20055;-60
2021/12/18 03:46:05;;;;;;;2.15;1.60;;;;;;;0.93;100.00;99913.03;5152917;27;20569;-61
2021/12/18 03:48:31;;;;;;;1.40;1.30;;;;;;;0.90;100.00;99920.84;5152784;27;20079;-61
2021/12/18 03:50:58;;;;;;;1.75;1.65;;;;;;;0.80;100.00;99915.53;5152818;27;20047;-61
2021/12/18 03:53:24;;;;;;;3.50;1.70;;;;;;;0.78;100.00;99906.94;5152666;27;20047;-61
2021/12/18 03:55:50;;;;;;;2.17;1.60;;;;;;;0.76;100.00;99896.41;5152822;27;20523;-60
2021/12/18 03:58:16;;;;;;;3.20;1.50;;;;;;;0.74;100.00;99889.69;5152698;27;20049;-61
2021/12/18 04:00:43;;;;;;;2.35;1.52;;;;;;;0.72;100.00;99897.25;5152682;27;20497;-61
2021/12/18 04:03:10;;;;;;;1.60;1.50;;;;;;;0.75;100.00;99889.41;5152697;27;20642;-61
2021/12/18 04:05:36;;;;;;;9.70;1.83;;;;;;;0.80;100.00;99897.47;5152716;27;20054;-61
2021/12/18 04:08:08;;;;;;;1.40;1.30;;;;;;;0.84;100.00;99900.41;5152522;27;20046;-61
2021/12/18 04:10:36;;;;;;;1.65;1.50;;;;;;;0.86;100.00;99882.81;5151892;27;20119;-60
2021/12/18 04:13:03;;;;;;;1.30;1.20;;;;;;;0.89;100.00;99884.94;5152443;27;20047;-61
2021/12/18 04:15:30;;;;;;;1.45;1.35;;;;;;;0.84;100.00;99886.91;5152238;27;20051;-61
2021/12/18 04:17:57;;;;;;;1.67;1.58;;;;;;;0.77;100.00;99881.84;5152422;27;20043;-61
2021/12/18 04:20:24;;;;;;;4.55;1.38;;;;;;;0.76;100.00;99880.19;5152307;27;20060;-60
2021/12/18 04:22:50;;;;;;;1.65;1.55;;;;;;;0.63;100.00;99870.88;5152195;27;20043;-60
2021/12/18 04:25:17;;;;;;;1.50;1.40;;;;;;;0.67;100.00;99861.13;5152113;27;20058;-61
2021/12/18 04:27:43;;;;;;;1.98;1.50;;;;;;;0.74;100.00;99833.81;5152203;27;20097;-61
2021/12/18 04:30:10;;;;;;;2.42;1.50;;;;;;;0.78;100.00;99829.47;5152296;27;20141;-60
2021/12/18 04:32:37;;;;;;;1.65;1.38;;;;;;;0.81;100.00;99818.09;5152116;27;20046;-61
2021/12/18 04:35:05;;;;;;;2.40;1.45;;;;;;;0.89;100.00;99816.66;5151448;27;20142;-60
2021/12/18 04:37:31;;;;;;;1.50;1.23;;;;;;;0.87;100.00;99816.16;5151489;27;20053;-60
2021/12/18 04:39:57;;;;;;;1.40;1.30;;;;;;;0.84;100.00;99816.72;5152025;27;20055;-60
2021/12/18 04:42:23;;;;;;;2.25;1.38;;;;;;;0.79;100.00;99822.97;5151905;27;20047;-60
2021/12/18 04:44:50;;;;;;;4.88;1.75;;;;;;;0.74;100.00;99827.63;5151745;27;20058;-61
2021/12/18 04:47:16;;;;;;;2.25;1.60;;;;;;;0.82;100.00;99832.38;5151667;27;20137;-61
2021/12/18 04:49:42;;;;;;;4.07;1.40;;;;;;;0.81;100.00;99834.28;5151767;27;20051;-61
2021/12/18 04:52:09;;;;;;;3.92;1.33;;;;;;;0.76;100.00;99853.22;5151907;27;20065;-60
2021/12/18 04:54:36;;;;;;;2.25;1.38;;;;;;;0.80;100.00;99856.97;5151873;27;20076;-61
2021/12/18 04:57:02;;;;;;;5.20;1.98;;;;;;;0.84;100.00;99849.13;5151852;27;20054;-60
2021/12/18 04:59:29;;;;;;;4.93;1.38;;;;;;;0.85;100.00;99854.22;5151735;27;20051;-61
2021/12/18 05:01:56;;;;;;;1.40;1.30;;;;;;;0.90;100.00;99856.88;5151657;27;20050;-61
2021/12/18 05:04:22;;;;;;;3.72;1.38;;;;;;;0.93;100.00;99858.19;5151487;27;20047;-60
2021/12/18 05:06:51;;;;;;;2.13;1.38;;;;;;;0.96;100.00;99857.63;5151757;27;20057;-61
2021/12/18 05:09:18;;;;;;;1.55;1.45;;;;;;;0.87;100.00;99872.84;5151019;27;20050;-60
2021/12/18 05:11:45;;;;;;;1.45;1.35;;;;;;;0.95;100.00;99872.22;5151348;27;20050;-61
2021/12/18 05:14:12;;;;;;;1.70;1.33;;;;;;;1.03;100.00;99863.50;5151558;27;20062;-61
2021/12/18 05:16:39;;;;;;;5.65;1.50;;;;;;;1.11;100.00;99862.09;5151424;27;20501;-61
2021/12/18 05:19:05;;;;;;;4.85;1.70;;;;;;;1.15;100.00;99860.44;5151535;27;20091;-60
2021/12/18 05:21:32;;;;;;;3.78;1.80;;;;;;;1.12;100.00;99863.69;5151425;27;20047;-61
2021/12/18 05:23:58;;;;;;;5.22;2.20;;;;;;;1.18;100.00;99870.66;5151489;27;20050;-60
2021/12/18 05:26:25;;;;;;;4.50;1.52;;;;;;;1.11;100.00;99886.41;5151533;27;20098;-60
2021/12/18 05:28:51;;;;;;;2.13;1.52;;;;;;;0.95;100.00;99885.72;5151675;27;20047;-61
2021/12/18 05:31:17;;;;;;;3.28;1.90;;;;;;;1.03;100.00;99895.09;5151671;27;20068;-60
2021/12/18 05:33:45;;;;;;;3.10;1.80;;;;;;;0.94;100.00;99897.63;5151424;27;20054;-61
2021/12/18 05:36:30;;;;;;;1.88;1.73;;;;;;;0.98;100.00;99900.56;5151542;27;20511;-60
2021/12/18 05:38:59;;;;;;;1.75;1.38;;;;;;;1.01;100.00;99894.59;5151194;27;20066;-61
2021/12/18 05:41:26;;;;;;;1.67;1.55;;;;;;;1.01;100.00;99900.78;5151524;27;20054;-60
2021/12/18 05:43:52;;;;;;;1.38;1.27;;;;;;;0.94;100.00;99908.41;5151032;27;20103;-60
2021/12/18 05:46:18;;;;;;;7.35;1.60;;;;;;;0.98;100.00;99898.66;5151198;27;20091;-60
2021/12/18 05:48:44;;;;;;;3.60;1.35;;;;;;;1.02;100.00;99904.28;5154490;27;20501;-60
2021/12/18 05:51:11;;;;;;;8.60;2.17;;;;;;;0.96;100.00;99908.94;5154857;27;20207;-61
2021/12/18 05:53:37;;;;;;;4.68;1.50;;;;;;;0.96;100.00;99919.72;5154805;27;20053;-61
2021/12/18 05:56:03;;;;;;;3.53;1.40;;;;;;;0.99;100.00;99921.06;5154763;27;20515;-61
2021/12/18 05:58:31;;;;;;;3.25;1.63;;;;;;;1.00;100.00;99936.16;5154723;27;20110;-61
2021/12/18 06:00:57;;;;;;;3.10;1.67;;;;;;;0.99;100.00;99934.56;5154637;27;20046;-61
2021/12/18 06:03:23;;;;;;;3.03;1.38;;;;;;;1.00;100.00;99933.47;5154498;27;20046;-61
2021/12/18 06:05:49;;;;;;;4.05;1.98;;;;;;;0.94;100.00;99927.31;5154324;27;20133;-60
2021/12/18 06:08:16;;;;;;;2.88;1.50;;;;;;;0.98;100.00;99936.47;5154422;27;20138;-61
2021/12/18 06:10:42;;;;;;;2.40;1.40;;;;;;;0.99;100.00;99927.25;5154022;27;20055;-60
2021/12/18 06:13:08;;;;;;;1.45;1.35;;;;;;;1.01;100.00;99927.00;5154257;27;20046;-61
2021/12/18 06:15:35;;;;;;;4.07;1.90;;;;;;;1.07;100.00;99934.78;5154315;27;20541;-61
2021/12/18 06:18:02;;;;;;;1.70;1.33;;;;;;;1.07;100.00;99931.28;5154409;27;20519;-61
2021/12/18 06:20:30;;;;;;;4.13;1.45;;;;;;;0.97;100.00;99942.13;5154213;27;20051;-61
2021/12/18 06:22:57;;;;;;;1.52;1.33;;;;;;;0.92;100.00;99956.47;5154361;27;20050;-61
2021/12/18 06:25:23;;;;;;;1.67;1.40;;;;;;;0.94;100.00;99947.03;5153999;27;20496;-61
2021/12/18 06:27:50;;;;;;;1.83;1.60;;;;;;;1.00;100.00;99939.69;5154331;27;20520;-60
2021/12/18 06:30:18;;;;;;;2.00;1.70;;;;;;;1.05;100.00;99934.25;5153700;27;20049;-60
2021/12/18 06:32:45;;;;;;;2.58;1.48;;;;;;;1.05;100.00;99930.75;5154050;27;20046;-60
2021/12/18 06:35:12;;;;;;;7.95;4.25;;;;;;;1.02;100.00;99923.19;5153986;27;20545;-61
2021/12/18 06:37:38;;;;;;;5.85;3.22;;;;;;;1.02;100.00;99923.19;5153898;27;20186;-61
2021/12/18 06:40:05;;;;;;;4.80;2.33;;;;;;;1.01;100.00;99919.69;5153962;27;20055;-61
2021/12/18 06:42:32;;;;;;;4.07;2.40;;;;;;;1.05;100.00;99925.34;5153555;27;20043;-60
2021/12/18 06:44:58;;;;;;;5.40;2.05;;;;;;;1.01;100.00;99925.09;5153904;27;20047;-61
2021/12/18 06:47:24;;;;;;;2.05;1.73;;;;;;;1.03;100.00;99914.00;5153665;27;20046;-61
2021/12/18 06:49:51;;;;;;;3.88;1.90;;;;;;;1.07;100.00;99909.66;5153626;27;20142;-60
2021/12/18 06:52:17;;;;;;;2.13;1.92;;;;;;;1.11;100.00;99902.59;5153596;27;20087;-60
2021/12/18 06:54:44;;;;;;;3.30;2.00;;;;;;;1.17;100.00;99902.28;5153757;27;20050;-61
2021/12/18 06:57:10;;;;;;;6.68;1.65;;;;;;;1.21;100.00;99899.00;5153554;27;20042;-61
2021/12/18 06:59:36;;;;;;;5.07;2.33;;;;;;;1.22;100.00;99903.31;5152682;27;20057;-61
2021/12/18 07:02:03;;;;;;;2.65;1.95;;;;;;;1.24;100.00;99901.94;5153184;27;20051;-61
2021/12/18 07:04:29;;;;;;;3.85;2.00;;;;;;;1.26;100.00;99907.03;5153450;27;20142;-61
2021/12/18 07:06:56;;;;;;;1.90;1.80;;;;;;;1.23;100.00;99900.31;5153343;27;20049;-61
2021/12/18 07:09:22;;;;;;;2.60;2.05;;;;;;;1.21;100.00;99902.50;5152731;27;20554;-61
2021/12/18 07:11:49;;;;;;;4.60;2.47;;;;;;;1.21;100.00;99907.91;5153456;27;20046;-60
2021/12/18 07:14:15;;;;;;;3.38;2.17;;;;;;;1.30;100.00;99890.00;5153303;27;20530;-61
2021/12/18 07:16:42;;;;;;;5.53;2.60;;;;;;;1.33;100.00;99892.13;5153490;27;20078;-60
2021/12/18 07:19:08;;;;;;;3.30;2.80;;;;;;;1.31;100.00;99878.09;5153365;27;20110;-61
2021/12/18 07:21:35;;;;;;;2.70;2.20;;;;;;;1.36;100.00;99879.94;5153330;27;20078;-61
2021/12/18 07:24:02;;;;;;;3.33;2.15;;;;;;;1.36;100.00;99878.03;5153020;27;20051;-61
2021/12/18 07:26:29;;;;;;;3.85;3.00;;;;;;;1.41;100.00;99875.28;5153265;27;20057;-61
2021/12/18 07:28:55;;;;;;;5.22;2.63;;;;;;;1.45;100.00;99875.50;5153098;27;20077;-61
2021/12/18 07:31:22;;;;;;;5.43;3.33;;;;;;;1.45;100.00;99867.41;5153057;27;20046;-61
2021/12/18 07:33:48;;;;;;;5.78;3.05;;;;;;;1.46;100.00;99865.50;5153180;27;20047;-60
2021/12/18 07:36:14;;;;;;;8.70;3.55;;;;;;;1.47;100.00;99859.84;5153146;27;20051;-61
2021/12/18 07:38:41;;;;;;;5.78;3.40;;;;;;;1.54;100.00;99862.19;5153348;27;20153;-61
2021/12/18 07:41:08;;;;;;;6.93;3.28;;;;;;;1.59;100.00;99864.81;5153023;27;20054;-60
2021/12/18 07:43:34;;;;;;;3.92;2.92;;;;;;;1.54;100.00;99859.50;5153077;27;20055;-61
2021/12/18 07:46:00;;;;;;;7.00;3.50;;;;;;;1.48;100.00;99855.22;5152501;27;20069;-61
2021/12/18 07:48:27;;;;;;;8.32;4.53;;;;;;;1.53;100.00;99855.16;5152884;27;20556;-61
2021/12/18 07:50:53;;;;;;;5.05;3.50;;;;;;;1.53;100.00;99849.75;5152504;27;20053;-60
2021/12/18 07:53:19;;;;;;;10.68;4.20;;;;;;;1.59;100.00;99848.59;5152535;27;20529;-61
2021/12/18 07:55:46;;;;;;;9.52;4.20;;;;;;;1.54;100.00;99848.69;5152529;27;20051;-61
2021/12/18 07:58:13;;;;;;;4.57;3.40;;;;;;;1.54;100.00;99851.38;5152576;27;20046;-61
2021/12/18 08:00:39;;;;;;;13.07;4.07;;;;;;;1.51;100.00;99846.56;5152257;27;20043;-61
2021/12/18 08:03:06;;;;;;;6.68;3.92;;;;;;;1.56;100.00;99838.38;5152768;27;20050;-61
2021/12/18 08:05:32;;;;;;;6.22;3.97;;;;;;;1.60;100.00;99842.09;5152333;27;20079;-61
2021/12/18 08:07:58;;;;;;;8.43;5.40;;;;;;;1.68;100.00;99832.56;5152342;27;20103;-61
2021/12/18 08:10:24;;;;;;;10.18;5.60;;;;;;;1.69;100.00;99829.56;5151638;27;20051;-61
2021/12/18 08:12:51;;;;;;;7.20;5.03;;;;;;;1.67;100.00;99828.22;5152320;27;20134;-61
2021/12/18 08:15:17;;;;;;;9.68;5.32;;;;;;;1.67;100.00;99823.66;5152402;27;20051;-61
2021/12/18 08:17:44;;;;;;;10.02;5.93;;;;;;;1.67;100.00;99812.00;5152172;27;20042;-61
2021/12/18 08:20:11;;;;;;;10.52;6.70;;;;;;;1.78;100.00;99817.00;5152351;27;20047;-61
2021/12/18 08:22:37;;;;;;;7.85;4.55;;;;;;;1.87;100.00;99809.06;5152232;27;20114;-61
2021/12/18 08:25:05;;;;;;;12.25;6.45;;;;;;;1.90;100.00;99816.59;5152068;27;20141;-61
2021/12/18 08:27:32;;;;;;;14.05;6.38;;;;;;;1.86;100.00;99819.06;5151987;27;20058;-61
2021/12/18 08:29:59;;;;;;;13.85;5.53;;;;;;;1.91;100.00;99817.41;5152335;27;20054;-61
2021/12/18 08:32:26;;;;;;;12.55;4.93;;;;;;;1.93;100.00;99810.59;5152125;27;20497;-61
2021/12/18 08:34:52;;;;;;;7.60;5.43;;;;;;;1.97;100.00;99805.44;5152037;27;20418;-61
2021/12/18 08:37:20;;;;;;;7.22;5.20;;;;;;;1.95;100.00;99800.28;5151840;27;20053;-61
2021/12/18 08:39:47;;;;;;;8.40;5.40;;;;;;;1.97;100.00;99802.72;5151974;27;20050;-61
2021/12/18 08:42:14;;;;;;;6.47;4.63;;;;;;;2.05;100.00;99804.75;5151752;27;20050;-61
2021/12/18 08:44:40;;;;;;;7.13;4.65;;;;;;;2.14;100.00;99797.59;5151641;27;20046;-61
2021/12/18 08:47:06;;;;;;;15.30;6.20;;;;;;;2.17;100.00;99801.63;5151889;27;20149;-61
2021/12/18 08:49:33;;;;;;;13.48;4.38;;;;;;;2.19;100.00;99794.00;5151759;27;20049;-61
2021/12/18 08:52:00;;;;;;;7.20;4.95;;;;;;;2.23;100.00;99797.72;5151733;27;20055;-61
2021/12/18 08:54:26;;;;;;;6.93;3.97;;;;;;;2.23;100.00;99800.44;5151634;27;20076;-60
2021/12/18 08:56:52;;;;;;;7.10;4.40;;;;;;;2.18;100.00;99804.03;5151588;27;20046;-61
2021/12/18 08:59:19;;;;;;;9.98;4.20;;;;;;;2.20;100.00;99806.41;5151661;27;20050;-60
2021/12/18 09:01:45;;;;;;;4.53;3.25;;;;;;;2.25;100.00;99792.81;5151728;27;20058;-61
2021/12/18 09:04:11;;;;;;;4.55;3.95;;;;;;;2.28;100.00;99790.34;5151504;27;20424;-61
2021/12/18 09:06:38;;;;;;;4.78;3.25;;;;;;;2.21;100.00;99795.31;5151925;27;20407;-60
2021/12/18 09:09:06;;;;;;;5.57;3.22;;;;;;;2.17;100.00;99793.50;5151606;27;20129;-61
2021/12/18 09:11:32;;;;;;;28.20;10.20;;;;;;;2.18;100.00;99804.03;5151227;27;20054;-61
2021/12/18 09:13:58;;;;;;;8.82;4.68;;;;;;;2.24;100.00;99793.94;5151267;27;20505;-61
2021/12/18 09:16:25;;;;;;;3.65;2.90;;;;;;;2.25;100.00;99787.41;5151441;27;20465;-60
2021/12/18 09:18:51;;;;;;;6.70;3.58;;;;;;;2.19;100.00;99789.38;5151445;27;20056;-61
2021/12/18 09:21:18;;;;;;;7.10;3.35;;;;;;;2.24;100.00;99785.81;5150724;27;20043;-61
2021/12/18 09:23:45;;;;;;;4.80;3.35;;;;;;;2.26;100.00;99786.31;5151029;27;20505;-61
2021/12/18 09:26:11;;;;;;;5.35;2.78;;;;;;;2.22;100.00;99785.31;5151522;27;20046;-61
2021/12/18 09:28:37;;;;;;;3.30;2.90;;;;;;;2.17;100.00;99786.19;5151537;27;20509;-61
2021/12/18 09:31:03;;;;;;;4.82;2.60;;;;;;;2.18;100.00;99797.81;5151525;27;20524;-61
2021/12/18 09:33:30;;;;;;;4.93;3.25;;;;;;;2.19;100.00;99796.69;5151518;27;20355;-61
2021/12/18 09:35:56;;;;;;;6.03;3.45;;;;;;;2.17;100.00;99798.91;5151399;27;20059;-61
2021/12/18 09:38:22;;;;;;;4.00;2.63;;;;;;;2.21;100.00;99795.31;5151377;27;20053;-61
2021/12/18 09:40:49;;;;;;;5.68;3.03;;;;;;;2.19;100.00;99792.09;5151180;27;20050;-60
2021/12/18 09:43:16;;;;;;;4.40;3.10;;;;;;;2.19;100.00;99792.09;5150995;27;20057;-61
2021/12/18 09:45:45;;;;;;;5.85;3.25;;;;;;;2.18;100.00;99784.28;5151057;27;20531;-60
2021/12/18 09:48:12;;;;;;;8.77;3.25;;;;;;;2.19;100.00;99781.28;5151291;27;20053;-60
2021/12/18 09:50:38;;;;;;;4.70;3.10;;;;;;;2.22;100.00;99779.88;5151173;27;20058;-61
2021/12/18 09:53:06;;;;;;;4.88;3.13;;;;;;;2.25;100.00;99782.00;5150865;27;20629;-61
2021/12/18 09:55:32;;;;;;;4.45;2.90;;;;;;;2.24;100.00;99786.63;5151071;27;20166;-61
2021/12/18 09:57:59;;;;;;;4.15;3.33;;;;;;;2.20;100.00;99790.19;5151118;27;20055;-60
2021/12/18 10:00:26;;;;;;;7.57;3.40;;;;;;;2.23;100.00;99789.59;5151063;27;20076;-61
2021/12/18 10:02:54;;;;;;;6.65;4.30;;;;;;;2.24;100.00;99793.94;5150647;27;20050;-60
2021/12/18 10:05:23;;;;;;;16.83;7.07;;;;;;;2.22;100.00;99798.81;5151058;27;20460;-61
2021/12/18 10:08:06;;;;;;;8.82;4.82;;;;;;;2.26;100.00;99794.44;5150950;27;20047;-61
2021/12/18 10:10:33;;;;;;;9.25;5.05;;;;;;;2.21;100.00;99803.44;5150333;27;20434;-60
2021/12/18 10:13:04;;;;;;;5.07;3.22;;;;;;;2.26;100.00;99799.84;5150418;27;20042;-61
2021/12/18 10:15:30;;;;;;;8.15;3.72;;;;;;;2.21;100.00;99791.81;5150786;27;20119;-61
2021/12/18 10:18:05;;;;;;;5.72;2.70;;;;;;;2.23;100.00;99795.84;5150701;27;20157;-61
2021/12/18 10:20:31;;;;;;;8.43;3.97;;;;;;;2.24;100.00;99793.94;5150620;27;20047;-61
2021/12/18 10:23:02;;;;;;;5.60;3.15;;;;;;;2.21;100.00;99806.13;5150554;27;20137;-60
2021/12/18 10:25:32;;;;;;;2.70;2.50;;;;;;;2.19;100.00;99805.63;5150477;27;20530;-61
2021/12/18 10:28:04;;;;;;;12.77;4.40;;;;;;;2.08;100.00;99809.59;5150435;27;20043;-61
2021/12/18 10:30:31;;;;;;;2.58;2.38;;;;;;;2.10;100.00;99804.69;5150315;27;20057;-60
2021/12/18 10:33:02;;;;;;;6.75;2.40;;;;;;;2.09;100.00;99800.34;5151004;27;20467;-60
2021/12/18 10:35:40;;;;;;;4.60;2.30;;;;;;;2.04;100.00;99785.03;5154044;27;20103;-60
2021/12/18 10:38:07;;;;;;;4.05;2.97;;;;;;;2.09;100.00;99776.03;5153755;27;20053;-61
2021/12/18 10:40:45;;;;;;;3.67;2.72;;;;;;;2.12;100.00;99775.44;5153677;27;20138;-61
2021/12/18 10:43:12;;;;;;;4.72;3.08;;;;;;;2.21;100.00;99767.47;5154250;27;20102;-61
2021/12/18 10:45:39;;;;;;;5.35;2.30;;;;;;;2.23;100.00;99765.25;5153627;27;20058;-61
2021/12/18 10:48:08;;;;;;;3.47;2.10;;;;;;;2.20;100.00;99760.44;5153495;27;20047;-61
2021/12/18 10:50:41;;;;;;;3.72;2.55;;;;;;;2.31;100.00;99770.00;5153864;27;20047;-60
2021/12/18 10:53:16;;;;;;;4.00;2.08;;;;;;;2.29;100.00;99764.88;5153665;27;20138;-61
2021/12/18 10:55:48;;;;;;;3.63;2.10;;;;;;;2.25;100.00;99769.28;5153714;27;20057;-61
2021/12/18 10:58:18;;;;;;;2.42;2.00;;;;;;;2.28;100.00;99755.16;5153504;27;20099;-61
2021/12/18 11:00:49;;;;;;;3.05;1.80;;;;;;;2.25;100.00;99763.88;5153626;27;20503;-60
2021/12/18 11:03:22;;;;;;;3.08;1.95;;;;;;;2.25;100.00;99754.94;5153571;27;20057;-61
2021/12/18 11:06:11;;;;;;;2.75;2.10;;;;;;;2.19;100.00;99739.91;5153470;27;20072;-61
2021/12/18 11:08:52;;;;;;;2.05;1.60;;;;;;;2.10;100.00;99734.38;5153561;27;20057;-60
2021/12/18 11:14:06;;;;;;;2.63;1.88;;;;;;;2.12;100.00;99710.53;5153321;27;20137;-60
2021/12/18 11:16:35;;;;;;;3.15;2.20;;;;;;;2.22;100.00;99698.72;5153350;27;20086;-61
2021/12/18 11:19:03;;;;;;;2.95;2.38;;;;;;;2.24;100.00;99678.41;5153532;27;20066;-60
2021/12/18 11:21:31;;;;;;;3.08;2.40;;;;;;;2.24;100.00;99673.00;5153611;27;20458;-60
2021/12/18 11:24:01;;;;;;;3.33;2.33;;;;;;;2.18;100.00;99667.97;5153308;27;20434;-60
2021/12/18 11:26:33;;;;;;;3.55;2.30;;;;;;;2.20;100.00;99658.47;5153385;27;20047;-60
2021/12/18 11:29:02;;;;;;;4.70;2.80;;;;;;;2.18;100.00;99641.72;5153451;27;20047;-60
2021/12/18 11:31:28;;;;;;;4.32;2.30;;;;;;;2.15;100.00;99626.09;5153303;27;20091;-60
2021/12/18 11:33:55;;;;;;;4.05;2.42;;;;;;;2.11;100.00;99620.47;5153080;27;20053;-61
2021/12/18 11:36:22;;;;;;;8.43;5.50;;;;;;;2.13;100.00;99603.94;5153268;27;20098;-61
2021/12/18 11:38:52;;;;;;;7.85;2.88;;;;;;;2.12;100.00;99597.72;5153148;27;20134;-61
2021/12/18 11:41:19;;;;;;;2.55;2.28;;;;;;;2.08;100.00;99596.72;5152450;27;20138;-61
2021/12/18 11:43:47;;;;;;;4.28;2.42;;;;;;;2.08;100.00;99590.50;5153024;27;20477;-61
2021/12/18 11:46:32;;;;;;;3.70;2.72;;;;;;;2.02;100.00;99576.25;5152284;27;20093;-61
2021/12/18 11:49:01;;;;;;;3.50;2.55;;;;;;;2.04;100.00;99565.97;5152833;27;20141;-61
2021/12/18 11:51:27;;;;;;;6.53;2.97;;;;;;;2.08;100.00;99539.13;5152757;27;20130;-61
2021/12/18 11:53:54;;;;;;;4.07;2.90;;;;;;;2.10;100.00;99536.94;5152827;27;20051;-60
2021/12/18 11:56:20;;;;;;;5.00;3.28;;;;;;;2.11;100.00;99533.91;5152481;27;20053;-60
2021/12/18 11:58:48;;;;;;;6.63;3.15;;;;;;;2.08;100.00;99528.31;5152772;27;20047;-60
2021/12/18 12:01:18;;;;;;;5.68;3.10;;;;;;;2.05;100.00;99516.19;5152277;27;20046;-60
2021/12/18 12:03:54;;;;;;;4.65;3.35;;;;;;;2.05;100.00;99510.78;5152485;27;20103;-60
2021/12/18 12:06:24;;;;;;;4.82;3.10;;;;;;;2.09;100.00;99508.25;5152337;27;20046;-61
2021/12/18 12:09:14;;;;;;;3.85;3.08;;;;;;;2.09;100.00;99513.66;5152688;27;20054;-60